Time;durP1;ratioP1;P1;durP2;ratioP2;P2;SDS_P1;SDS_P2;PMS_P1;PMS_P2;Temp;Humidity;BMP_temperature;BMP_pressure;BME280_temperature;BME280_humidity;BME280_pressure;Samples;Min_cycle;Max_cycle;Signal;HPM_P1;HPM_P2
2022/05/24 00:02:13;;;;;;;;;;;16.60;66.70;;;15.83;62.39;95844.53;4150211;34;19910;-85
2022/05/24 00:04:42;;;;;;;;;;;16.60;66.80;;;15.81;62.35;95842.09;4150282;34;20154;-85
2022/05/24 00:07:10;;;;;;;;;;;16.60;66.80;;;15.78;62.32;95835.25;4149692;34;20083;-84
2022/05/24 00:09:39;;;;;;;;;;;16.60;66.80;;;15.80;62.50;95841.28;4150224;34;19911;-84
2022/05/24 00:12:09;;;;;;;;;;;16.60;66.80;;;15.79;62.53;95847.13;4150182;34;19911;-84
2022/05/24 00:17:25;;;;;;;;;;;16.60;66.80;;;15.79;62.27;95844.34;4149516;34;19985;-84
2022/05/24 00:19:54;;;;;;;;;;;16.60;66.80;;;15.77;62.47;95835.56;4150132;34;20151;-84
2022/05/24 00:22:22;;;;;;;;;;;16.60;66.70;;;15.78;62.50;95837.19;4150878;34;19915;-84
2022/05/24 00:24:51;;;;;;;;;;;16.60;67.60;;;15.77;62.25;95835.56;4150006;34;19955;-85
2022/05/24 00:27:20;;;;;;;;;;;16.60;66.80;;;15.76;62.38;95837.50;4149527;34;20159;-85
2022/05/24 00:29:48;;;;;;;;;;;16.60;66.80;;;15.76;62.47;95831.19;4127442;34;20031;-84
2022/05/24 00:32:17;;;;;;;;;;;16.50;66.80;;;15.75;62.45;95829.53;4149971;34;20090;-84
2022/05/24 00:34:47;;;;;;;;;;;16.50;66.80;;;15.76;62.40;95842.22;4127341;34;19904;-84
2022/05/24 00:37:16;;;;;;;;;;;16.50;66.80;;;15.74;62.11;95841.72;4149493;34;20230;-84
2022/05/24 00:39:46;;;;;;;;;;;16.50;66.80;;;15.73;62.26;95837.31;4127268;34;20055;-84
2022/05/24 00:42:18;;;;;;;;;;;16.50;66.80;;;15.73;62.55;95832.63;4149899;34;19959;-84
2022/05/24 00:44:50;;;;;;;;;;;16.50;66.80;;;15.73;62.57;95838.16;4149697;34;19910;-84
2022/05/24 00:47:24;;;;;;;;;;;16.50;66.70;;;15.73;62.37;95837.31;4149932;34;19918;-84
2022/05/24 00:49:57;;;;;;;;;;;16.50;66.70;;;15.73;62.42;95834.56;4150900;34;19911;-83
2022/05/24 00:52:28;;;;;;;;;;;16.50;66.60;;;15.71;62.31;95834.88;4149679;34;19911;-83
2022/05/24 00:54:57;;;;;;;;;;;16.50;66.80;;;15.71;62.42;95829.34;4149779;34;20414;-84
2022/05/24 00:57:29;;;;;;;;;;;16.50;66.70;;;15.71;61.91;95834.03;4126776;34;20032;-84
2022/05/24 01:00:04;;;;;;;;;;;16.50;66.70;;;15.69;62.56;95826.09;4149696;34;20450;-83
2022/05/24 01:02:33;;;;;;;;;;;16.50;66.80;;;15.69;62.36;95836.31;4127019;34;19911;-84
2022/05/24 01:05:03;;;;;;;;;;;16.50;66.80;;;15.69;62.63;95834.38;4127135;34;20058;-84
2022/05/24 01:07:32;;;;;;;;;;;16.50;66.90;;;15.67;62.42;95827.53;4126676;34;19911;-84
2022/05/24 01:10:02;;;;;;;;;;;16.50;66.80;;;15.68;62.50;95840.22;4149546;34;19907;-84
2022/05/24 01:12:33;;;;;;;;;;;16.50;66.80;;;15.68;62.18;95834.69;4149617;34;19904;-83
2022/05/24 01:15:03;;;;;;;;;;;16.50;66.70;;;15.66;62.59;95835.00;4149369;34;19904;-83
2022/05/24 01:17:32;;;;;;;;;;;16.40;66.60;;;15.67;62.36;95831.09;4149091;34;19915;-83
2022/05/24 01:20:00;;;;;;;;;;;16.40;66.80;;;15.62;62.32;95834.81;4126767;34;19915;-85
2022/05/24 01:23:00;;;;;;;;;;;16.40;66.60;;;15.63;62.38;95828.16;4149648;34;20171;-83
2022/05/24 01:25:31;;;;;;;;;;;16.40;66.70;;;15.63;62.50;95827.31;4126927;34;19903;-84
2022/05/24 01:28:02;;;;;;;;;;;16.40;66.60;;;15.64;62.35;95829.78;4148977;34;20296;-84
2022/05/24 01:30:30;;;;;;;;;;;16.40;66.60;;;15.63;62.44;95828.16;4126882;34;19903;-83
2022/05/24 01:38:30;;;;;;;;;;;16.40;66.60;;;15.61;62.51;95819.38;4150315;34;20123;-83
2022/05/24 01:41:04;;;;;;;;;;;16.40;66.70;;;15.60;62.37;95823.25;4149352;34;20367;-83
2022/05/24 01:43:49;;;;;;;;;;;16.40;66.90;;;15.60;62.39;95828.78;4126775;34;20124;-84
2022/05/24 01:46:41;;;;;;;;;;;16.40;66.70;;;15.59;62.21;95816.09;4149820;34;19904;-84
2022/05/24 01:49:12;;;;;;;;;;;16.40;66.80;;;15.59;62.58;95816.09;4126727;34;20106;-83
2022/05/24 01:51:44;;;;;;;;;;;16.40;66.80;;;15.59;62.37;95815.31;4126729;34;19910;-83
2022/05/24 01:54:13;;;;;;;;;;;16.40;66.70;;;15.57;62.37;95812.84;4150189;34;19910;-83
2022/05/24 01:56:45;;;;;;;;;;;16.40;66.70;;;15.57;62.17;95815.59;4148668;34;19904;-83
2022/05/24 01:59:17;;;;;;;;;;;16.40;66.60;;;15.57;62.14;95812.84;4150994;34;19910;-83
2022/05/24 02:01:48;;;;;;;;;;;16.30;66.60;;;15.56;62.26;95815.94;4151622;34;20113;-84
2022/05/24 02:04:17;;;;;;;;;;;16.30;66.60;;;15.56;62.31;95811.22;4128798;34;20133;-84
2022/05/24 02:06:45;;;;;;;;;;;16.30;66.80;;;15.55;62.54;95819.81;4128350;34;19904;-84
2022/05/24 02:09:14;;;;;;;;;;;16.30;66.80;;;15.55;62.60;95817.03;4128873;34;20003;-84
2022/05/24 02:11:43;;;;;;;;;;;16.30;66.90;;;15.54;62.65;95812.66;4151530;34;19985;-84
2022/05/24 02:14:14;;;;;;;;;;;16.30;67.10;;;15.54;62.80;95815.41;4151413;34;20383;-84
2022/05/24 02:16:48;;;;;;;;;;;16.30;67.10;;;15.53;62.46;95822.06;4128321;34;19903;-84
2022/05/24 02:19:17;;;;;;;;;;;16.30;66.80;;;15.52;62.54;95812.97;4128796;34;20289;-84
2022/05/24 02:21:47;;;;;;;;;;;16.30;66.80;;;15.53;62.71;95819.28;4150589;34;19903;-84
2022/05/24 02:24:18;;;;;;;;;;;16.40;66.80;;;15.52;62.68;95818.50;4150522;34;19910;-84
2022/05/24 02:26:47;;;;;;;;;;;16.30;67.10;;;15.50;62.47;95807.75;4150804;34;20332;-84
2022/05/24 02:29:16;;;;;;;;;;;16.30;66.80;;;15.51;62.40;95819.63;4152154;34;19911;-84
2022/05/24 02:31:46;;;;;;;;;;;16.30;66.80;;;15.50;62.38;95818.00;4151155;34;19908;-84
2022/05/24 02:34:15;;;;;;;;;;;16.30;66.80;;;15.50;62.54;95821.53;4151050;34;20223;-84
2022/05/24 02:36:44;;;;;;;;;;;16.30;66.70;;;15.49;62.59;95814.41;4150767;34;19903;-84
2022/05/24 02:39:12;;;;;;;;;;;16.30;66.90;;;15.49;62.47;95811.63;4150994;34;19903;-83
2022/05/24 02:41:45;;;;;;;;;;;16.30;66.90;;;15.48;62.62;95806.44;4150974;34;19903;-83
2022/05/24 02:44:15;;;;;;;;;;;16.30;67.10;;;15.48;62.48;95815.56;4151136;34;19912;-84
2022/05/24 02:46:47;;;;;;;;;;;16.30;66.80;;;15.48;62.49;95817.47;4150457;34;20046;-84
2022/05/24 02:49:15;;;;;;;;;;;16.30;66.80;;;15.48;62.80;95803.69;4151888;34;19911;-84
2022/05/24 02:51:45;;;;;;;;;;;16.20;67.00;;;15.47;62.66;95813.91;4128246;34;20142;-84
2022/05/24 02:54:14;;;;;;;;;;;16.30;67.00;;;15.47;62.54;95805.66;4150555;34;19911;-84
2022/05/24 02:56:44;;;;;;;;;;;16.20;66.90;;;15.46;62.67;95812.28;4127404;34;20215;-84
2022/05/24 02:59:13;;;;;;;;;;;16.20;66.90;;;15.47;62.87;95813.09;4150612;34;19903;-85
2022/05/24 03:01:42;;;;;;;;;;;16.30;67.10;;;15.46;62.54;95817.81;4151450;34;19951;-84
2022/05/24 03:04:12;;;;;;;;;;;16.20;66.70;;;15.46;62.59;95811.47;4150445;34;20215;-84
2022/05/24 03:09:35;;;;;;;;;;;16.20;66.80;;;15.45;62.55;95812.59;4151399;34;20238;-83
2022/05/24 03:14:53;;;;;;;;;;;16.20;66.70;;;15.45;62.09;95813.41;4150502;34;20020;-84
2022/05/24 03:17:22;;;;;;;;;;;16.20;66.60;;;15.45;62.25;95818.09;4149894;34;19910;-84
2022/05/24 03:19:52;;;;;;;;;;;16.20;66.50;;;15.44;62.68;95809.03;4127871;34;20044;-84
2022/05/24 03:22:21;;;;;;;;;;;16.20;66.70;;;15.46;62.46;95805.94;4150529;34;20019;-84
2022/05/24 03:24:49;;;;;;;;;;;16.20;66.60;;;15.46;62.36;95812.28;4150262;34;20030;-84
2022/05/24 03:27:19;;;;;;;;;;;16.20;66.50;;;15.47;61.47;95807.56;4127240;34;20129;-84
2022/05/24 03:29:48;;;;;;;;;;;16.30;66.10;;;15.48;61.86;95809.22;4127537;34;20010;-84
2022/05/24 03:32:18;;;;;;;;;;;16.30;66.20;;;15.48;62.06;95809.22;4150422;34;20118;-84
2022/05/24 03:34:47;;;;;;;;;;;16.30;66.30;;;15.49;62.27;95805.31;4150901;34;20113;-84
2022/05/24 03:37:17;;;;;;;;;;;16.30;66.00;;;15.51;61.54;95814.09;4149780;34;19983;-84
2022/05/24 03:39:45;;;;;;;;;;;16.30;66.00;;;15.52;61.54;95810.22;4127333;34;19910;-84
2022/05/24 03:42:14;;;;;;;;;;;16.30;65.80;;;15.53;61.72;95805.50;4127693;34;19903;-84
2022/05/24 03:44:43;;;;;;;;;;;16.30;65.80;;;15.55;61.47;95809.59;4150063;34;20117;-84
2022/05/24 03:47:11;;;;;;;;;;;16.30;65.60;;;15.55;61.29;95809.59;4149723;34;20351;-84
2022/05/24 03:49:40;;;;;;;;;;;16.30;65.40;;;15.55;61.43;95815.13;4149864;34;19904;-84
2022/05/24 03:52:09;;;;;;;;;;;16.40;65.50;;;15.57;61.31;95807.31;4127461;34;20164;-84
2022/05/24 03:54:40;;;;;;;;;;;16.40;65.50;;;15.59;61.16;95810.59;4149830;34;19904;-84
2022/05/24 03:59:54;;;;;;;;;;;16.40;65.40;;;15.60;61.73;95798.44;4149981;34;19903;-84
2022/05/24 04:02:23;;;;;;;;;;;16.40;65.30;;;15.62;61.36;95798.94;4150078;34;19996;-85
2022/05/24 04:04:52;;;;;;;;;;;16.40;65.40;;;15.63;61.27;95795.03;4149852;34;19904;-84
2022/05/24 04:07:20;;;;;;;;;;;16.40;65.20;;;15.64;60.81;95795.84;4126979;34;19904;-84
2022/05/24 04:09:50;;;;;;;;;;;16.40;64.80;;;15.67;60.78;95802.72;4127222;34;20262;-84
2022/05/24 04:12:19;;;;;;;;;;;16.50;64.70;;;15.69;60.74;95805.94;4150917;34;20123;-84
2022/05/24 04:14:48;;;;;;;;;;;16.50;64.70;;;15.69;60.81;95809.53;4127064;34;20309;-84
2022/05/24 04:17:16;;;;;;;;;;;16.50;64.70;;;15.72;60.55;95802.56;4122137;34;19911;-86
2022/05/24 04:19:45;;;;;;;;;;;16.50;64.70;;;15.72;61.00;95808.09;4100356;34;19904;-84
2022/05/24 04:22:14;;;;;;;;;;;16.50;65.10;;;15.74;61.20;95808.59;4122347;34;20185;-84
2022/05/24 04:24:42;;;;;;;;;;;16.60;65.40;;;15.74;61.64;95806.66;4100706;34;20125;-84
2022/05/24 04:27:12;;;;;;;;;;;16.60;65.60;;;15.76;61.37;95809.09;4122365;34;20007;-84
2022/05/24 04:29:41;;;;;;;;;;;16.60;65.60;;;15.79;61.96;95814.00;4122913;34;20091;-84
2022/05/24 04:32:10;;;;;;;;;;;16.60;65.90;;;15.79;61.86;95802.97;4122737;34;19972;-84
2022/05/24 04:34:39;;;;;;;;;;;16.60;66.10;;;15.81;62.15;95808.97;4100473;34;20253;-84
2022/05/24 04:37:08;;;;;;;;;;;16.60;66.30;;;15.81;61.83;95803.47;4123214;34;19904;-84
2022/05/24 04:39:37;;;;;;;;;;;16.70;66.30;;;15.83;62.41;95801.19;4122615;34;19973;-84
2022/05/24 04:42:25;;;;;;;;;;;16.70;66.60;;;15.85;62.21;95801.72;4122470;34;20240;-84
2022/05/24 04:44:57;;;;;;;;;;;16.70;66.40;;;15.86;62.20;95808.88;4100108;34;19904;-85
2022/05/24 04:47:28;;;;;;;;;;;16.70;66.50;;;15.88;62.29;95808.56;4141068;34;19909;-84
2022/05/24 04:49:58;;;;;;;;;;;16.70;66.60;;;15.89;62.51;95811.00;4149437;34;19904;-84
2022/05/24 04:52:30;;;;;;;;;;;16.80;66.70;;;15.90;62.51;95809.03;4126976;34;20102;-84
2022/05/24 04:54:59;;;;;;;;;;;16.70;66.80;;;15.90;62.45;95804.34;4149517;34;19903;-85
2022/05/24 04:57:27;;;;;;;;;;;16.70;66.80;;;15.91;62.32;95805.16;4126503;34;19985;-85
2022/05/24 04:59:57;;;;;;;;;;;16.70;66.40;;;15.93;62.42;95802.91;4126825;34;19908;-84
2022/05/24 05:02:26;;;;;;;;;;;16.70;66.70;;;15.95;62.45;95806.97;4126977;34;20113;-84
2022/05/24 05:04:55;;;;;;;;;;;16.80;66.70;;;15.98;62.15;95807.47;4126840;34;20082;-84
2022/05/24 05:07:24;;;;;;;;;;;16.80;66.60;;;15.98;62.37;95807.47;4126534;34;19911;-84
2022/05/24 05:09:54;;;;;;;;;;;16.80;66.70;;;15.99;62.51;95807.19;4126755;34;20013;-84
2022/05/24 05:12:25;;;;;;;;;;;16.80;66.80;;;16.01;62.31;95809.63;4149490;34;19911;-84
2022/05/24 05:14:53;;;;;;;;;;;16.80;67.30;;;16.02;62.53;95812.03;4127002;34;20111;-84
2022/05/24 05:17:23;;;;;;;;;;;16.80;66.70;;;16.04;62.24;95814.50;4149156;34;19904;-84
2022/05/24 05:19:54;;;;;;;;;;;16.80;66.50;;;16.04;62.32;95809.78;4149459;34;20043;-84
2022/05/24 05:22:23;;;;;;;;;;;16.80;66.70;;;16.03;62.44;95819.19;4127127;34;19903;-84
2022/05/24 05:24:52;;;;;;;;;;;16.80;66.50;;;16.02;62.20;95823.09;4150356;34;19966;-84
2022/05/24 05:27:20;;;;;;;;;;;16.80;66.20;;;16.03;62.36;95823.91;4149084;34;20186;-84
2022/05/24 05:32:39;;;;;;;;;;;16.80;66.80;;;16.05;62.40;95833.50;4149556;34;19904;-83
2022/05/24 05:35:08;;;;;;;;;;;16.90;66.70;;;16.06;62.04;95837.09;4128585;34;20066;-84
2022/05/24 05:37:37;;;;;;;;;;;16.90;66.50;;;16.06;62.72;95837.09;4151452;34;19931;-84
2022/05/24 05:40:07;;;;;;;;;;;16.90;66.60;;;16.04;62.76;95833.84;4151781;34;19903;-84
2022/05/24 05:42:36;;;;;;;;;;;16.90;67.00;;;16.05;62.48;95843.75;4129126;34;20027;-84
2022/05/24 05:45:10;;;;;;;;;;;16.90;66.90;;;16.06;62.64;95846.19;4129167;34;19904;-84
2022/05/24 05:47:40;;;;;;;;;;;16.90;66.90;;;16.08;62.67;95841.19;4129013;34;19911;-84
2022/05/24 05:50:10;;;;;;;;;;;16.90;66.90;;;16.11;62.48;95845.25;4129007;34;20274;-84
2022/05/24 05:52:39;;;;;;;;;;;16.90;66.80;;;16.14;62.22;95839.09;4152716;34;19904;-83
2022/05/24 05:55:09;;;;;;;;;;;16.90;66.60;;;16.19;62.22;95838.97;4174348;34;20223;-84
2022/05/24 05:57:38;;;;;;;;;;;17.00;66.40;;;16.22;61.97;95846.59;4151009;34;19903;-84
2022/05/24 06:00:09;;;;;;;;;;;17.00;66.30;;;16.24;62.11;95836.06;4128973;34;20000;-84
2022/05/24 06:02:48;;;;;;;;;;;17.00;66.30;;;16.25;62.29;95834.94;4152650;34;19904;-84
2022/05/24 06:05:16;;;;;;;;;;;17.10;66.40;;;16.28;62.07;95846.47;4129015;34;20149;-84
2022/05/24 06:07:45;;;;;;;;;;;17.10;67.20;;;16.32;62.05;95847.50;4128517;34;19903;-84
2022/05/24 06:10:14;;;;;;;;;;;17.10;66.50;;;16.34;62.33;95847.97;4151403;34;20242;-85
2022/05/24 06:12:42;;;;;;;;;;;17.10;66.40;;;16.36;61.96;95848.47;4151512;34;20246;-84
2022/05/24 06:15:12;;;;;;;;;;;17.10;66.20;;;16.39;62.02;95847.84;4128892;34;20335;-84
2022/05/24 06:17:45;;;;;;;;;;;17.20;66.30;;;16.39;62.28;95847.84;4128585;34;20135;-84
2022/05/24 06:20:19;;;;;;;;;;;17.20;66.30;;;16.36;62.29;95842.94;4128712;34;20032;-85
2022/05/24 06:22:49;;;;;;;;;;;17.20;66.30;;;16.40;62.10;95839.22;4151215;34;20160;-85
2022/05/24 06:25:18;;;;;;;;;;;17.20;66.30;;;16.40;62.17;95843.94;4128710;34;19996;-85
2022/05/24 06:27:47;;;;;;;;;;;17.20;66.40;;;16.42;62.02;95844.44;4150837;34;19903;-85
2022/05/24 06:30:19;;;;;;;;;;;17.20;66.20;;;16.40;62.30;95832.91;4151417;34;20230;-85
2022/05/24 06:32:48;;;;;;;;;;;17.20;66.40;;;16.38;62.36;95837.91;4128784;34;19903;-85
2022/05/24 06:35:18;;;;;;;;;;;17.20;66.40;;;16.37;62.46;95833.53;4128591;34;19904;-85
2022/05/24 06:37:48;;;;;;;;;;;17.20;66.50;;;16.35;62.53;95833.84;4150757;34;19911;-85
2022/05/24 06:40:20;;;;;;;;;;;17.10;66.70;;;16.32;62.62;95842.78;4128416;34;20112;-85
2022/05/24 06:42:49;;;;;;;;;;;17.10;66.70;;;16.31;62.61;95841.13;4151287;34;20012;-85
2022/05/24 06:45:18;;;;;;;;;;;17.20;66.70;;;16.30;62.68;95838.69;4128198;34;19910;-85
2022/05/24 06:47:47;;;;;;;;;;;17.10;66.90;;;16.26;62.70;95833.81;4127852;34;20427;-85
2022/05/24 06:50:17;;;;;;;;;;;17.10;66.90;;;16.27;62.66;95837.38;4128480;34;19904;-87
2022/05/24 06:52:47;;;;;;;;;;;17.10;67.00;;;16.26;62.67;95828.28;4152225;34;19903;-85
2022/05/24 06:55:17;;;;;;;;;;;17.10;67.10;;;16.28;62.77;95832.69;4151882;34;19903;-85
2022/05/24 06:57:45;;;;;;;;;;;17.10;67.10;;;16.31;62.61;95832.84;4150579;34;19910;-85
2022/05/24 07:03:12;;;;;;;;;;;17.10;67.00;;;16.40;62.45;95844.75;4128448;34;19996;-85
2022/05/24 07:05:43;;;;;;;;;;;17.20;66.80;;;16.45;62.43;95832.78;4128431;34;19903;-84
2022/05/24 07:08:12;;;;;;;;;;;17.20;66.60;;;16.49;62.04;95836.50;4127860;34;19990;-85
2022/05/24 07:10:41;;;;;;;;;;;17.20;66.50;;;16.51;62.22;95842.53;4128248;34;20139;-84
2022/05/24 07:13:11;;;;;;;;;;;17.30;66.50;;;16.52;62.04;95837.84;4151016;34;19991;-85
2022/05/24 07:15:40;;;;;;;;;;;17.30;66.40;;;16.52;62.15;95835.88;4101305;34;19911;-85
2022/05/24 07:18:08;;;;;;;;;;;17.30;66.50;;;16.50;62.34;95838.16;4123297;34;20095;-85
2022/05/24 07:20:37;;;;;;;;;;;17.30;66.60;;;16.50;62.56;95842.88;4124703;34;20058;-85
2022/05/24 07:23:11;;;;;;;;;;;17.30;66.80;;;16.49;62.63;95842.03;4101427;34;20220;-85
2022/05/24 07:25:41;;;;;;;;;;;17.30;66.80;;;16.48;62.70;95845.13;4149585;34;19904;-86
2022/05/24 07:28:10;;;;;;;;;;;17.30;66.80;;;16.46;62.41;95839.09;4150489;34;19904;-85
2022/05/24 07:30:38;;;;;;;;;;;17.30;66.90;;;16.44;62.76;95844.97;4128082;34;20022;-85
2022/05/24 07:33:07;;;;;;;;;;;17.30;67.00;;;16.41;62.75;95837.28;4128513;34;19903;-85
2022/05/24 07:35:36;;;;;;;;;;;17.30;66.90;;;16.45;62.61;95843.81;4150609;34;19908;-86
2022/05/24 07:38:08;;;;;;;;;;;17.30;66.90;;;16.45;62.62;95831.94;4127604;34;19911;-85
2022/05/24 07:46:12;;;;;;;;;;;17.30;67.00;;;16.45;62.72;95846.59;4122958;34;19904;-85
2022/05/24 07:48:41;;;;;;;;;;;17.30;67.10;;;16.48;62.44;95845.94;4101077;34;20128;-84
2022/05/24 07:51:09;;;;;;;;;;;17.30;66.90;;;16.50;62.46;95849.19;4101028;34;20032;-85
2022/05/24 07:53:40;;;;;;;;;;;17.30;66.90;;;16.52;62.47;95855.22;4123364;34;19911;-85
2022/05/24 07:56:08;;;;;;;;;;;17.30;66.90;;;16.55;62.34;95846.31;4123309;34;20091;-85
2022/05/24 07:58:37;;;;;;;;;;;17.30;66.70;;;16.59;62.29;95843.72;4123128;34;20175;-85
2022/05/24 08:01:05;;;;;;;;;;;17.30;66.60;;;16.64;62.11;95835.28;4101027;34;19994;-86
2022/05/24 08:03:34;;;;;;;;;;;17.40;66.40;;;16.66;61.99;95834.97;4123086;34;19904;-85
2022/05/24 08:06:03;;;;;;;;;;;17.40;66.30;;;16.67;62.01;95828.31;4100727;34;20103;-85
2022/05/24 08:08:31;;;;;;;;;;;17.40;66.30;;;16.67;61.99;95836.59;4123210;34;20172;-85
2022/05/24 08:11:01;;;;;;;;;;;17.50;66.40;;;16.65;62.07;95836.91;4124106;34;20119;-85
2022/05/24 08:13:30;;;;;;;;;;;17.40;66.30;;;16.63;62.39;95830.06;4123356;34;20074;-85
2022/05/24 08:15:59;;;;;;;;;;;17.40;66.50;;;16.63;62.32;95838.34;4122897;34;20030;-85
2022/05/24 08:18:28;;;;;;;;;;;17.40;67.40;;;16.62;62.36;95842.25;4124022;34;19912;-85
2022/05/24 08:20:57;;;;;;;;;;;17.40;66.70;;;16.60;62.60;95836.22;4114487;34;19911;-85
2022/05/24 08:23:41;;;;;;;;;;;17.40;66.60;;;16.62;62.45;95850.53;4100741;34;20266;-85
2022/05/24 08:27:18;;;;;;;;;;;17.40;66.60;;;16.63;62.25;95841.13;4100180;34;20136;-86
2022/05/24 08:29:48;;;;;;;;;;;17.40;66.60;;;16.67;62.28;95842.13;4100292;34;19904;-85
2022/05/24 08:32:16;;;;;;;;;;;17.50;66.70;;;16.66;62.50;95837.72;4122931;34;19904;-85
2022/05/24 08:34:45;;;;;;;;;;;17.40;66.60;;;16.66;62.24;95835.78;4125227;34;20160;-85
2022/05/24 08:37:14;;;;;;;;;;;17.50;66.60;;;16.67;62.36;95833.84;4149394;34;19903;-85
2022/05/24 08:39:42;;;;;;;;;;;17.40;66.50;;;16.65;62.48;95831.38;4127402;34;19904;-85
2022/05/24 08:42:14;;;;;;;;;;;17.40;66.60;;;16.65;62.68;95833.34;4127261;34;19904;-86
2022/05/24 08:50:20;;;;;;;;;;;17.40;66.70;;;16.63;62.38;95830.91;4149737;34;19903;-85
2022/05/24 08:52:51;;;;;;;;;;;17.40;66.70;;;16.65;62.44;95836.09;4150059;34;20234;-85
2022/05/24 08:55:20;;;;;;;;;;;17.40;66.80;;;16.63;62.64;95830.91;4127281;34;20245;-85
2022/05/24 08:57:50;;;;;;;;;;;17.40;66.80;;;16.63;62.66;95830.91;4126841;34;20402;-85
2022/05/24 09:00:21;;;;;;;;;;;17.40;66.80;;;16.64;62.58;95829.78;4149894;34;20099;-85
2022/05/24 09:02:51;;;;;;;;;;;17.50;66.80;;;16.65;62.15;95828.59;4127171;34;20127;-86
2022/05/24 09:05:23;;;;;;;;;;;17.50;66.80;;;16.66;62.80;95835.78;4149868;34;20372;-85
2022/05/24 09:08:08;;;;;;;;;;;17.50;66.80;;;16.67;62.58;95822.78;4149103;34;19959;-85
2022/05/24 09:10:42;;;;;;;;;;;17.50;66.90;;;16.67;62.50;95820.00;4127143;34;20343;-86
2022/05/24 09:13:23;;;;;;;;;;;17.50;66.80;;;16.68;62.57;95827.19;4126991;34;19919;-86
2022/05/24 09:15:57;;;;;;;;;;;17.50;66.80;;;16.69;62.73;95817.75;4127062;34;20141;-86
2022/05/24 09:18:34;;;;;;;;;;;17.50;66.80;;;16.67;62.76;95809.75;4126760;34;19911;-86
2022/05/24 09:21:02;;;;;;;;;;;17.50;67.00;;;16.67;62.69;95822.78;4126708;34;19990;-86
2022/05/24 09:23:34;;;;;;;;;;;17.50;66.90;;;16.64;62.80;95817.88;4149444;34;19911;-85
2022/05/24 09:26:05;;;;;;;;;;;17.50;67.00;;;16.63;62.88;95814.31;4150123;34;20347;-86
2022/05/24 09:28:49;;;;;;;;;;;17.40;67.10;;;16.61;62.86;95821.28;4149592;34;19911;-86
2022/05/24 09:31:26;;;;;;;;;;;17.40;67.10;;;16.59;63.39;95827.13;4150481;34;20057;-86
2022/05/24 09:33:57;;;;;;;;;;;17.40;67.20;;;16.57;63.19;95810.06;4126927;34;20170;-87
2022/05/24 09:36:39;;;;;;;;;;;17.40;67.30;;;16.55;63.02;95807.63;4149135;34;19904;-85
2022/05/24 09:39:22;;;;;;;;;;;17.40;67.40;;;16.55;62.83;95812.31;4126824;34;20204;-85
2022/05/24 09:41:56;;;;;;;;;;;17.40;67.40;;;16.54;63.36;95803.22;4126720;34;20162;-86
2022/05/24 09:44:25;;;;;;;;;;;17.40;67.40;;;16.51;63.10;95792.81;4126870;34;19903;-85
2022/05/24 09:46:54;;;;;;;;;;;17.30;67.40;;;16.50;62.99;95782.88;4126303;34;20242;-85
2022/05/24 09:49:32;;;;;;;;;;;17.30;67.50;;;16.51;63.32;95783.72;4126890;34;19978;-86
2022/05/24 09:52:13;;;;;;;;;;;17.30;67.60;;;16.48;63.09;95779.63;4149205;34;19904;-85
2022/05/24 09:54:53;;;;;;;;;;;17.30;67.50;;;16.47;63.17;95780.75;4149479;34;20463;-85
2022/05/24 09:57:27;;;;;;;;;;;17.30;67.60;;;16.48;63.28;95779.63;4138106;34;19910;-86
2022/05/24 10:00:09;;;;;;;;;;;17.30;67.60;;;16.49;63.16;95774.94;4126738;34;19904;-85
2022/05/24 10:02:39;;;;;;;;;;;17.30;67.70;;;16.48;63.12;95768.56;4126818;34;20131;-86
2022/05/24 10:05:20;;;;;;;;;;;17.30;67.70;;;16.48;63.28;95763.03;4172140;34;19903;-87
2022/05/24 10:07:58;;;;;;;;;;;17.30;67.70;;;16.47;63.28;95758.66;4126223;34;20122;-86
2022/05/24 10:10:30;;;;;;;;;;;17.30;67.60;;;16.48;63.52;95754.75;4149085;34;19911;-85
2022/05/24 10:13:04;;;;;;;;;;;17.30;67.60;;;16.45;63.32;95747.13;4126610;34;19904;-84
2022/05/24 10:15:39;;;;;;;;;;;17.30;67.70;;;16.47;63.43;95750.34;4148900;34;23085;-86
2022/05/24 10:19:00;;;;;;;;;;;17.30;67.60;;;16.48;63.39;95746.47;4126074;34;20056;-84
2022/05/24 10:21:34;;;;;;;;;;;17.30;67.70;;;16.48;63.16;95740.13;4150985;34;19904;-85
2022/05/24 10:24:13;;;;;;;;;;;17.30;67.60;;;16.47;63.54;95733.78;4151462;34;20142;-86
2022/05/24 10:26:57;;;;;;;;;;;17.30;67.60;;;16.48;63.22;95735.41;4128420;34;20423;-85
2022/05/24 10:29:40;;;;;;;;;;;17.30;67.70;;;16.48;63.42;95735.41;4128756;34;19903;-85
2022/05/24 10:38:17;;;;;;;;;;;17.30;67.70;;;16.48;63.26;95721.59;4128731;34;20227;-86
2022/05/24 10:38:20;;;;;;;;;;;17.30;67.70;;;16.50;63.46;95726.81;4150784;34;19976;-87
2022/05/24 10:41:00;;;;;;;;;;;17.30;67.70;;;16.50;63.47;95724.06;4151185;34;20151;-87
2022/05/24 10:43:50;;;;;;;;;;;17.30;67.70;;;16.51;63.68;95723.72;4128532;34;19911;-86
2022/05/24 10:46:23;;;;;;;;;;;17.30;67.80;;;16.51;63.42;95723.72;4128266;34;19904;-85
2022/05/24 10:48:58;;;;;;;;;;;17.30;67.80;;;16.52;63.06;95714.31;4128741;34;20463;-85
2022/05/24 10:51:30;;;;;;;;;;;17.30;67.80;;;16.50;63.24;95724.84;4128454;34;20015;-86
2022/05/24 10:54:02;;;;;;;;;;;17.30;67.80;;;16.52;63.37;95725.34;4152062;34;20009;-86
2022/05/24 10:56:38;;;;;;;;;;;17.30;67.70;;;16.53;63.25;95731.69;4128189;34;20590;-86
2022/05/24 10:59:14;;;;;;;;;;;17.30;67.70;;;16.53;63.31;95734.44;4127873;34;20131;-86
2022/05/24 11:01:45;;;;;;;;;;;17.40;67.60;;;16.54;63.42;95738.84;4128430;34;19911;-86
2022/05/24 11:04:22;;;;;;;;;;;17.30;67.70;;;16.53;63.34;95738.03;4150901;34;19961;-86
2022/05/24 11:06:58;;;;;;;;;;;17.40;67.60;;;16.55;63.18;95740.47;4150597;34;20358;-85
2022/05/24 11:09:29;;;;;;;;;;;17.40;67.60;;;16.54;63.36;95745.19;4128312;34;20003;-86
2022/05/24 11:12:00;;;;;;;;;;;17.40;67.70;;;16.54;62.96;95756.25;4128440;34;19958;-86
2022/05/24 11:14:35;;;;;;;;;;;17.40;67.60;;;16.55;63.08;95748.75;4150880;34;20153;-85
2022/05/24 11:17:04;;;;;;;;;;;17.40;67.60;;;16.55;63.07;95751.53;4127858;34;19903;-85
2022/05/24 11:19:36;;;;;;;;;;;17.40;67.40;;;16.55;63.16;95751.53;4150782;34;19910;-86
2022/05/24 11:22:09;;;;;;;;;;;17.30;67.50;;;16.58;63.16;95750.88;4150921;34;20446;-86
2022/05/24 11:24:48;;;;;;;;;;;17.40;67.50;;;16.57;63.18;95757.56;4146234;34;19911;-86
2022/05/24 11:27:23;;;;;;;;;;;17.40;67.50;;;16.54;63.12;95750.72;4100961;34;19904;-85
2022/05/24 11:29:56;;;;;;;;;;;17.40;67.60;;;16.59;63.23;95751.72;4123251;34;20159;-86
2022/05/24 11:32:36;;;;;;;;;;;17.40;67.50;;;16.57;63.07;95749.25;4123366;34;19911;-87
2022/05/24 11:35:09;;;;;;;;;;;17.40;67.40;;;16.59;63.33;95748.97;4123503;34;19904;-86
2022/05/24 11:37:38;;;;;;;;;;;17.40;67.50;;;16.60;63.15;95745.03;4123123;34;19911;-86
2022/05/24 11:40:32;;;;;;;;;;;17.40;67.60;;;16.60;62.95;95743.09;4123384;34;20127;-86
2022/05/24 11:43:02;;;;;;;;;;;17.40;67.40;;;16.62;63.10;95742.75;4123422;34;20136;-86
2022/05/24 11:45:57;;;;;;;;;;;17.40;67.30;;;16.62;63.04;95748.28;4123409;34;20131;-85
2022/05/24 11:48:49;;;;;;;;;;;17.40;67.30;;;16.61;63.19;95741.97;4101189;34;19911;-86
2022/05/24 11:51:37;;;;;;;;;;;17.40;67.40;;;16.62;63.27;95745.53;4101023;34;19904;-86
2022/05/24 11:54:08;;;;;;;;;;;17.40;67.40;;;16.61;63.12;95753.03;4115198;34;19911;-86
2022/05/24 11:56:39;;;;;;;;;;;17.40;67.30;;;16.62;63.16;95760.19;4150197;34;19903;-85
2022/05/24 11:59:11;;;;;;;;;;;17.40;67.40;;;16.62;63.05;95756.59;4150308;34;19911;-85
2022/05/24 12:01:50;;;;;;;;;;;17.40;67.40;;;16.63;63.04;95755.44;4128019;34;19904;-86
2022/05/24 12:10:31;;;;;;;;;;;17.40;67.40;;;16.62;63.10;95751.88;4150362;34;19903;-86
2022/05/24 12:13:38;;;;;;;;;;;17.40;67.40;;;16.63;63.38;95750.75;4150224;34;20066;-86
2022/05/24 12:16:24;;;;;;;;;;;17.40;67.40;;;16.62;63.11;95757.41;4149790;34;20239;-86
2022/05/24 12:18:59;;;;;;;;;;;17.40;67.20;;;16.65;63.10;95755.94;4126681;34;20117;-85
2022/05/24 12:22:04;;;;;;;;;;;17.40;67.40;;;16.63;62.63;95759.03;4150162;34;19910;-85
2022/05/24 12:24:58;;;;;;;;;;;17.40;67.40;;;16.64;62.92;95755.16;4127561;34;20044;-86